sensor_id;sensor_type;location;lat;lon;timestamp;pressure;altitude;pressure_sealevel;temperature;humidity
59289;BME280;45056;47.602;9.886;2023-09-07T00:00:36;93314.56;;;19.64;59.63
59289;BME280;45056;47.602;9.886;2023-09-07T00:03:05;93311.53;;;19.62;59.69
59289;BME280;45056;47.602;9.886;2023-09-07T00:05:33;93313.56;;;19.61;59.67
59289;BME280;45056;47.602;9.886;2023-09-07T00:08:02;93313.56;;;19.61;59.96
59289;BME280;45056;47.602;9.886;2023-09-07T00:36:01;93299.88;;;19.41;60.04
59289;BME280;45056;47.602;9.886;2023-09-07T00:38:29;93300.84;;;19.38;60.27
59289;BME280;45056;47.602;9.886;2023-09-07T00:40:57;93309.34;;;19.34;60.50
59289;BME280;45056;47.602;9.886;2023-09-07T00:43:25;93297.78;;;19.30;60.47
59289;BME280;45056;47.602;9.886;2023-09-07T00:45:54;93305.53;;;19.26;60.72
59289;BME280;45056;47.602;9.886;2023-09-07T00:48:22;93310.78;;;19.24;60.56
59289;BME280;45056;47.602;9.886;2023-09-07T00:50:51;93305.25;;;19.24;60.82
59289;BME280;45056;47.602;9.886;2023-09-07T00:53:20;93309.25;;;19.23;60.58
59289;BME280;45056;47.602;9.886;2023-09-07T00:55:49;93303.00;;;19.22;60.86
59289;BME280;45056;47.602;9.886;2023-09-07T00:58:17;93302.22;;;19.22;60.91
59289;BME280;45056;47.602;9.886;2023-09-07T01:00:45;93299.97;;;19.20;60.81
59289;BME280;45056;47.602;9.886;2023-09-07T01:03:13;93299.69;;;19.18;60.64
59289;BME280;45056;47.602;9.886;2023-09-07T01:05:47;93298.69;;;19.15;60.91
59289;BME280;45056;47.602;9.886;2023-09-07T01:08:24;93298.16;;;19.11;60.79
59289;BME280;45056;47.602;9.886;2023-09-07T01:10:56;93304.13;;;19.10;60.96
59289;BME280;45056;47.602;9.886;2023-09-07T01:13:24;93297.63;;;19.07;60.99
59289;BME280;45056;47.602;9.886;2023-09-07T01:15:53;93297.63;;;19.07;61.23
59289;BME280;45056;47.602;9.886;2023-09-07T01:18:21;93293.81;;;19.05;60.75
59289;BME280;45056;47.602;9.886;2023-09-07T01:20:52;93288.72;;;18.97;60.46
59289;BME280;45056;47.602;9.886;2023-09-07T01:23:23;93283.66;;;18.90;60.51
59289;BME280;45056;47.602;9.886;2023-09-07T01:25:53;93289.13;;;18.84;60.99
59289;BME280;45056;47.602;9.886;2023-09-07T01:28:22;93291.34;;;18.80;61.28
59289;BME280;45056;47.602;9.886;2023-09-07T01:30:51;93289.03;;;18.79;61.31
59289;BME280;45056;47.602;9.886;2023-09-07T01:33:19;93280.50;;;18.77;61.74
59289;BME280;45056;47.602;9.886;2023-09-07T01:35:47;93280.25;;;18.74;61.76
59289;BME280;45056;47.602;9.886;2023-09-07T01:38:15;93284.25;;;18.73;61.71
59289;BME280;45056;47.602;9.886;2023-09-07T01:40:45;93277.22;;;18.72;61.82
59289;BME280;45056;47.602;9.886;2023-09-07T01:43:13;93280.75;;;18.73;61.88
59289;BME280;45056;47.602;9.886;2023-09-07T01:45:42;93281.22;;;18.71;61.79
59289;BME280;45056;47.602;9.886;2023-09-07T01:48:11;93276.94;;;18.70;61.82
59289;BME280;45056;47.602;9.886;2023-09-07T01:50:40;93274.66;;;18.69;61.96
59289;BME280;45056;47.602;9.886;2023-09-07T01:53:08;93275.91;;;18.68;61.90
59289;BME280;45056;47.602;9.886;2023-09-07T01:55:36;93278.41;;;18.66;61.92
59289;BME280;45056;47.602;9.886;2023-09-07T01:58:05;93272.63;;;18.64;61.74
59289;BME280;45056;47.602;9.886;2023-09-07T02:00:36;93274.38;;;18.61;61.91
59289;BME280;45056;47.602;9.886;2023-09-07T02:03:05;93268.59;;;18.59;62.06
59289;BME280;45056;47.602;9.886;2023-09-07T02:05:33;93277.59;;;18.59;61.98
59289;BME280;45056;47.602;9.886;2023-09-07T02:08:02;93278.38;;;18.60;61.68
59289;BME280;45056;47.602;9.886;2023-09-07T02:10:30;93276.09;;;18.58;61.67
59289;BME280;45056;47.602;9.886;2023-09-07T02:12:58;93275.81;;;18.56;61.58
59289;BME280;45056;47.602;9.886;2023-09-07T02:15:27;93265.25;;;18.55;61.74
59289;BME280;45056;47.602;9.886;2023-09-07T02:17:55;93273.75;;;18.51;61.88
59289;BME280;45056;47.602;9.886;2023-09-07T02:20:24;93274.22;;;18.50;62.03
59289;BME280;45056;47.602;9.886;2023-09-07T02:22:51;93285.25;;;18.50;61.90
59289;BME280;45056;47.602;9.886;2023-09-07T02:25:19;93283.00;;;18.48;61.98
59289;BME280;45056;47.602;9.886;2023-09-07T02:27:47;93284.97;;;18.48;61.87
59289;BME280;45056;47.602;9.886;2023-09-07T02:30:16;93285.75;;;18.48;62.03
59289;BME280;45056;47.602;9.886;2023-09-07T02:32:45;93281.50;;;18.47;61.72
59289;BME280;45056;47.602;9.886;2023-09-07T02:35:13;93283.69;;;18.43;61.37
59289;BME280;45056;47.602;9.886;2023-09-07T02:37:41;93286.66;;;18.39;61.40
59289;BME280;45056;47.602;9.886;2023-09-07T02:40:10;93285.84;;;18.33;61.71
59289;BME280;45056;47.602;9.886;2023-09-07T02:42:38;93283.28;;;18.29;61.99
59289;BME280;45056;47.602;9.886;2023-09-07T02:45:09;93284.25;;;18.26;62.01
59289;BME280;45056;47.602;9.886;2023-09-07T02:47:38;93287.97;;;18.23;62.20
59289;BME280;45056;47.602;9.886;2023-09-07T02:50:08;93287.72;;;18.21;62.35
59289;BME280;45056;47.602;9.886;2023-09-07T02:52:36;93279.44;;;18.21;62.43
59289;BME280;45056;47.602;9.886;2023-09-07T02:55:05;93275.44;;;18.22;62.28
59289;BME280;45056;47.602;9.886;2023-09-07T02:57:35;93277.44;;;18.22;62.46
59289;BME280;45056;47.602;9.886;2023-09-07T03:00:04;93271.19;;;18.21;62.73
59289;BME280;45056;47.602;9.886;2023-09-07T03:02:36;93272.91;;;18.19;62.58
59289;BME280;45056;47.602;9.886;2023-09-07T03:05:08;93280.41;;;18.18;62.49
59289;BME280;45056;47.602;9.886;2023-09-07T03:07:36;93273.13;;;18.15;62.46
59289;BME280;45056;47.602;9.886;2023-09-07T03:10:06;93280.63;;;18.14;62.50
59289;BME280;45056;47.602;9.886;2023-09-07T03:12:34;93279.09;;;18.13;62.35
59289;BME280;45056;47.602;9.886;2023-09-07T03:15:03;93285.09;;;18.12;62.25
59289;BME280;45056;47.602;9.886;2023-09-07T03:17:31;93280.06;;;18.10;62.40
59289;BME280;45056;47.602;9.886;2023-09-07T03:20:00;93277.31;;;18.10;62.34
59289;BME280;45056;47.602;9.886;2023-09-07T03:22:33;93283.59;;;18.11;62.45
59289;BME280;45056;47.602;9.886;2023-09-07T03:25:01;93275.34;;;18.11;62.49
59289;BME280;45056;47.602;9.886;2023-09-07T03:27:29;93277.31;;;18.10;62.52
59289;BME280;45056;47.602;9.886;2023-09-07T03:29:57;93277.31;;;18.10;62.40
59289;BME280;45056;47.602;9.886;2023-09-07T03:32:25;93278.09;;;18.11;62.42
59289;BME280;45056;47.602;9.886;2023-09-07T03:34:58;93270.28;;;18.09;62.33
59289;BME280;45056;47.602;9.886;2023-09-07T03:37:27;93280.53;;;18.09;62.28
59289;BME280;45056;47.602;9.886;2023-09-07T03:39:56;93279.03;;;18.08;62.59
59289;BME280;45056;47.602;9.886;2023-09-07T03:42:24;93276.78;;;18.06;62.58
59289;BME280;45056;47.602;9.886;2023-09-07T03:44:52;93280.75;;;18.05;62.32
59289;BME280;45056;47.602;9.886;2023-09-07T03:47:20;93284.25;;;18.06;62.42
59289;BME280;45056;47.602;9.886;2023-09-07T03:49:48;93282.00;;;18.04;62.38
59289;BME280;45056;47.602;9.886;2023-09-07T03:52:16;93285.50;;;18.05;62.44
59289;BME280;45056;47.602;9.886;2023-09-07T03:54:44;93283.72;;;18.01;62.36
59289;BME280;45056;47.602;9.886;2023-09-07T03:57:14;93284.19;;;18.00;62.51
59289;BME280;45056;47.602;9.886;2023-09-07T03:59:42;93280.66;;;17.99;62.50
59289;BME280;45056;47.602;9.886;2023-09-07T04:02:10;93281.91;;;17.98;62.64
59289;BME280;45056;47.602;9.886;2023-09-07T04:04:39;93287.91;;;17.97;62.62
59289;BME280;45056;47.602;9.886;2023-09-07T04:07:08;93284.38;;;17.96;62.56
59289;BME280;45056;47.602;9.886;2023-09-07T04:09:36;93288.38;;;17.95;62.78
59289;BME280;45056;47.602;9.886;2023-09-07T04:12:04;93282.59;;;17.93;62.97
59289;BME280;45056;47.602;9.886;2023-09-07T04:14:35;93287.31;;;17.93;62.86
59289;BME280;45056;47.602;9.886;2023-09-07T04:17:03;93285.34;;;17.93;62.89
59289;BME280;45056;47.602;9.886;2023-09-07T04:19:31;93283.81;;;17.92;62.90
59289;BME280;45056;47.602;9.886;2023-09-07T04:22:00;93278.78;;;17.91;63.01
59289;BME280;45056;47.602;9.886;2023-09-07T04:24:28;93274.53;;;17.89;62.96
59289;BME280;45056;47.602;9.886;2023-09-07T04:26:58;93285.25;;;17.87;63.05
59289;BME280;45056;47.602;9.886;2023-09-07T04:29:27;93281.75;;;17.87;63.04
59289;BME280;45056;47.602;9.886;2023-09-07T04:31:57;93277.97;;;17.84;63.07
59289;BME280;45056;47.602;9.886;2023-09-07T04:34:25;93289.47;;;17.83;63.11
59289;BME280;45056;47.602;9.886;2023-09-07T04:36:53;93281.69;;;17.81;63.07
59289;BME280;45056;47.602;9.886;2023-09-07T04:39:21;93279.69;;;17.82;62.94
59289;BME280;45056;47.602;9.886;2023-09-07T04:41:49;93284.44;;;17.81;62.94
59289;BME280;45056;47.602;9.886;2023-09-07T04:44:18;93289.19;;;17.81;62.83
59289;BME280;45056;47.602;9.886;2023-09-07T04:46:46;93289.66;;;17.79;62.72
59289;BME280;45056;47.602;9.886;2023-09-07T04:49:16;93294.88;;;17.77;62.82
59289;BME280;45056;47.602;9.886;2023-09-07T04:51:44;93300.38;;;17.77;63.25
59289;BME280;45056;47.602;9.886;2023-09-07T04:54:12;93299.34;;;17.74;63.19
59289;BME280;45056;47.602;9.886;2023-09-07T04:56:40;93302.88;;;17.75;63.32
59289;BME280;45056;47.602;9.886;2023-09-07T04:59:08;93297.84;;;17.73;63.36
59289;BME280;45056;47.602;9.886;2023-09-07T05:01:36;93305.34;;;17.73;63.42
59289;BME280;45056;47.602;9.886;2023-09-07T05:04:04;93297.84;;;17.73;63.46
59289;BME280;45056;47.602;9.886;2023-09-07T05:06:34;93302.59;;;17.73;63.43
59289;BME280;45056;47.602;9.886;2023-09-07T05:09:04;93307.59;;;17.74;63.60
59289;BME280;45056;47.602;9.886;2023-09-07T05:11:32;93307.88;;;17.77;63.61
59289;BME280;45056;47.602;9.886;2023-09-07T05:14:01;93300.19;;;17.81;63.73
59289;BME280;45056;47.602;9.886;2023-09-07T05:16:29;93304.75;;;17.84;63.78
59289;BME280;45056;47.602;9.886;2023-09-07T05:18:57;93308.50;;;17.86;63.81
59289;BME280;45056;47.602;9.886;2023-09-07T05:21:25;93300.81;;;17.91;63.86
59289;BME280;45056;47.602;9.886;2023-09-07T05:23:54;93303.09;;;17.92;63.55
59289;BME280;45056;47.602;9.886;2023-09-07T05:26:22;93306.13;;;17.94;63.51
59289;BME280;45056;47.602;9.886;2023-09-07T05:28:51;93304.41;;;17.97;63.34
59289;BME280;45056;47.602;9.886;2023-09-07T05:31:19;93301.16;;;17.98;63.29
59289;BME280;45056;47.602;9.886;2023-09-07T05:33:47;93302.25;;;18.01;63.25
59289;BME280;45056;47.602;9.886;2023-09-07T05:36:15;93308.75;;;18.03;63.14
59289;BME280;45056;47.602;9.886;2023-09-07T05:38:43;93304.31;;;18.06;63.12
59289;BME280;45056;47.602;9.886;2023-09-07T05:41:12;93302.56;;;18.09;63.33
59289;BME280;45056;47.602;9.886;2023-09-07T05:43:40;93312.38;;;18.10;63.31
59289;BME280;45056;47.602;9.886;2023-09-07T05:46:08;93314.16;;;18.13;63.21
59289;BME280;45056;47.602;9.886;2023-09-07T05:48:36;93312.69;;;18.17;63.15
59289;BME280;45056;47.602;9.886;2023-09-07T05:51:04;93310.00;;;18.23;63.46
59289;BME280;45056;47.602;9.886;2023-09-07T05:53:32;93314.81;;;18.28;63.21
59289;BME280;45056;47.602;9.886;2023-09-07T05:56:00;93311.09;;;18.31;63.35
59289;BME280;45056;47.602;9.886;2023-09-07T05:58:30;93316.41;;;18.35;63.46
59289;BME280;45056;47.602;9.886;2023-09-07T06:00:58;93321.22;;;18.40;63.57
59289;BME280;45056;47.602;9.886;2023-09-07T06:03:27;93312.50;;;18.42;63.44
59289;BME280;45056;47.602;9.886;2023-09-07T06:05:55;93309.03;;;18.47;63.47
59289;BME280;45056;47.602;9.886;2023-09-07T06:08:23;93309.84;;;18.53;63.81
59289;BME280;45056;47.602;9.886;2023-09-07T06:10:53;93314.94;;;18.60;63.86
59289;BME280;45056;47.602;9.886;2023-09-07T06:13:21;93311.75;;;18.68;64.06
59289;BME280;45056;47.602;9.886;2023-09-07T06:15:50;93310.09;;;18.76;64.17
59289;BME280;45056;47.602;9.886;2023-09-07T06:18:18;93312.41;;;18.83;64.47
59289;BME280;45056;47.602;9.886;2023-09-07T06:20:46;93317.47;;;18.91;64.57
59289;BME280;45056;47.602;9.886;2023-09-07T06:23:14;93314.31;;;18.98;64.74
59289;BME280;45056;47.602;9.886;2023-09-07T06:25:42;93315.13;;;19.04;64.95
59289;BME280;45056;47.602;9.886;2023-09-07T06:28:10;93312.69;;;19.12;65.82
59289;BME280;45056;47.602;9.886;2023-09-07T06:30:39;93315.28;;;19.21;66.75
59289;BME280;45056;47.602;9.886;2023-09-07T06:33:08;93316.81;;;19.28;67.11
59289;BME280;45056;47.602;9.886;2023-09-07T06:35:36;93310.38;;;19.37;67.26
59289;BME280;45056;47.602;9.886;2023-09-07T06:38:04;93311.94;;;19.43;67.01
59289;BME280;45056;47.602;9.886;2023-09-07T06:40:32;93312.72;;;19.50;67.06
59289;BME280;45056;47.602;9.886;2023-09-07T06:43:01;93319.31;;;19.58;67.19
59289;BME280;45056;47.602;9.886;2023-09-07T06:45:34;93322.84;;;19.64;67.31
59289;BME280;45056;47.602;9.886;2023-09-07T06:48:03;93321.16;;;19.72;67.51
59289;BME280;45056;47.602;9.886;2023-09-07T06:50:33;93322.69;;;19.79;67.05
59289;BME280;45056;47.602;9.886;2023-09-07T06:53:01;93325.03;;;19.86;67.09
59289;BME280;45056;47.602;9.886;2023-09-07T06:55:29;93319.31;;;19.96;66.77
59289;BME280;45056;47.602;9.886;2023-09-07T06:57:57;93319.19;;;20.16;66.51
59289;BME280;45056;47.602;9.886;2023-09-07T07:00:26;93326.69;;;20.76;65.65
59289;BME280;45056;47.602;9.886;2023-09-07T07:02:54;93320.47;;;21.90;62.97
59289;BME280;45056;47.602;9.886;2023-09-07T07:05:23;93325.03;;;22.63;60.64
59289;BME280;45056;47.602;9.886;2023-09-07T07:07:54;93322.38;;;22.88;59.55
59289;BME280;45056;47.602;9.886;2023-09-07T07:10:22;93316.59;;;22.86;59.47
59289;BME280;45056;47.602;9.886;2023-09-07T07:12:51;93321.00;;;22.65;60.04
59289;BME280;45056;47.602;9.886;2023-09-07T07:15:19;93319.53;;;22.41;60.54
59289;BME280;45056;47.602;9.886;2023-09-07T07:17:47;93328.44;;;22.22;61.22
59289;BME280;45056;47.602;9.886;2023-09-07T07:20:15;93335.78;;;22.08;61.71
59289;BME280;45056;47.602;9.886;2023-09-07T07:22:43;93330.00;;;21.95;62.04
59289;BME280;45056;47.602;9.886;2023-09-07T07:25:12;93339.38;;;21.86;62.44
59289;BME280;45056;47.602;9.886;2023-09-07T07:27:40;93333.31;;;21.82;62.53
59289;BME280;45056;47.602;9.886;2023-09-07T07:30:09;93337.09;;;21.79;62.46
59289;BME280;45056;47.602;9.886;2023-09-07T07:32:37;93337.09;;;21.79;62.58
59289;BME280;45056;47.602;9.886;2023-09-07T07:35:05;93341.38;;;21.80;62.69
59289;BME280;45056;47.602;9.886;2023-09-07T07:37:34;93338.84;;;21.82;62.92
59289;BME280;45056;47.602;9.886;2023-09-07T07:40:02;93338.59;;;21.85;63.11
59289;BME280;45056;47.602;9.886;2023-09-07T07:42:32;93335.06;;;21.96;62.78
59289;BME280;45056;47.602;9.886;2023-09-07T07:45:00;93341.81;;;22.07;62.59
59289;BME280;45056;47.602;9.886;2023-09-07T07:47:28;93336.78;;;22.11;62.50
59289;BME280;45056;47.602;9.886;2023-09-07T07:49:56;93334.78;;;22.11;62.41
59289;BME280;45056;47.602;9.886;2023-09-07T07:52:24;93338.28;;;22.12;62.51
59289;BME280;45056;47.602;9.886;2023-09-07T07:54:53;93341.28;;;22.14;62.83
59289;BME280;45056;47.602;9.886;2023-09-07T07:57:21;93337.53;;;22.11;62.65
59289;BME280;45056;47.602;9.886;2023-09-07T07:59:50;93339.53;;;22.11;62.51
59289;BME280;45056;47.602;9.886;2023-09-07T08:02:18;93336.78;;;22.11;62.72
59289;BME280;45056;47.602;9.886;2023-09-07T08:04:46;93338.28;;;22.12;63.16
59289;BME280;45056;47.602;9.886;2023-09-07T08:07:14;93344.59;;;22.12;63.55
59289;BME280;45056;47.602;9.886;2023-09-07T08:09:42;93343.81;;;22.12;63.85
59289;BME280;45056;47.602;9.886;2023-09-07T08:12:10;93343.31;;;22.13;63.80
59289;BME280;45056;47.602;9.886;2023-09-07T08:14:39;93336.75;;;22.16;63.82
59289;BME280;45056;47.602;9.886;2023-09-07T08:17:08;93344.84;;;22.20;63.77
59289;BME280;45056;47.602;9.886;2023-09-07T08:19:36;93337.50;;;22.23;63.80
59289;BME280;45056;47.602;9.886;2023-09-07T08:22:05;93332.44;;;22.27;63.66
59289;BME280;45056;47.602;9.886;2023-09-07T08:24:35;93337.72;;;22.30;63.47
59289;BME280;45056;47.602;9.886;2023-09-07T08:27:04;93334.72;;;22.34;63.79
59289;BME280;45056;47.602;9.886;2023-09-07T08:29:32;93333.69;;;22.37;63.48
59289;BME280;45056;47.602;9.886;2023-09-07T08:32:00;93329.13;;;22.40;63.34
59289;BME280;45056;47.602;9.886;2023-09-07T08:34:31;93328.88;;;22.43;63.12
59289;BME280;45056;47.602;9.886;2023-09-07T08:37:02;93323.09;;;22.47;63.12
59289;BME280;45056;47.602;9.886;2023-09-07T08:39:33;93330.91;;;22.48;63.12
59289;BME280;45056;47.602;9.886;2023-09-07T08:42:01;93336.91;;;22.53;62.87
59289;BME280;45056;47.602;9.886;2023-09-07T08:44:33;93335.16;;;22.55;62.71
59289;BME280;45056;47.602;9.886;2023-09-07T08:47:04;93332.63;;;22.57;62.60
59289;BME280;45056;47.602;9.886;2023-09-07T08:49:35;93335.88;;;22.61;62.64
59289;BME280;45056;47.602;9.886;2023-09-07T08:52:04;93332.59;;;22.63;62.63
59289;BME280;45056;47.602;9.886;2023-09-07T08:54:34;93331.81;;;22.68;62.52
59289;BME280;45056;47.602;9.886;2023-09-07T08:57:06;93333.03;;;22.73;62.24
59289;BME280;45056;47.602;9.886;2023-09-07T08:59:35;93333.53;;;22.77;62.18
59289;BME280;45056;47.602;9.886;2023-09-07T09:02:08;93329.75;;;22.80;61.85
59289;BME280;45056;47.602;9.886;2023-09-07T09:04:38;93332.75;;;22.82;61.78
59289;BME280;45056;47.602;9.886;2023-09-07T09:07:06;93331.72;;;22.85;61.61
59289;BME280;45056;47.602;9.886;2023-09-07T09:09:35;93328.91;;;22.91;61.41
59289;BME280;45056;47.602;9.886;2023-09-07T09:12:08;93328.88;;;22.97;61.34
59289;BME280;45056;47.602;9.886;2023-09-07T09:14:36;93332.09;;;23.06;61.23
59289;BME280;45056;47.602;9.886;2023-09-07T09:17:04;93338.91;;;23.11;61.20
59289;BME280;45056;47.602;9.886;2023-09-07T09:19:34;93330.53;;;23.17;60.95
59289;BME280;45056;47.602;9.886;2023-09-07T09:22:05;93334.53;;;23.22;61.02
59289;BME280;45056;47.602;9.886;2023-09-07T09:24:34;93327.47;;;23.26;60.60
59289;BME280;45056;47.602;9.886;2023-09-07T09:27:03;93328.69;;;23.31;60.49
59289;BME280;45056;47.602;9.886;2023-09-07T09:29:35;93334.47;;;23.33;60.67
59289;BME280;45056;47.602;9.886;2023-09-07T09:32:05;93326.63;;;23.37;60.96
59289;BME280;45056;47.602;9.886;2023-09-07T09:34:36;93325.84;;;23.42;60.83
59289;BME280;45056;47.602;9.886;2023-09-07T09:37:12;93328.06;;;23.49;61.69
59289;BME280;45056;47.602;9.886;2023-09-07T09:39:42;93323.19;;;23.56;61.91
59289;BME280;45056;47.602;9.886;2023-09-07T09:42:12;93330.22;;;23.62;61.94
59289;BME280;45056;47.602;9.886;2023-09-07T09:44:41;93324.59;;;23.68;61.92
59289;BME280;45056;47.602;9.886;2023-09-07T09:47:13;93327.09;;;23.72;61.78
59289;BME280;45056;47.602;9.886;2023-09-07T09:49:42;93322.78;;;23.76;61.52
59289;BME280;45056;47.602;9.886;2023-09-07T09:52:12;93327.28;;;23.80;61.82
59289;BME280;45056;47.602;9.886;2023-09-07T09:54:42;93321.97;;;23.82;61.69
59289;BME280;45056;47.602;9.886;2023-09-07T09:57:11;93322.94;;;23.84;61.59
59289;BME280;45056;47.602;9.886;2023-09-07T09:59:39;93318.16;;;23.85;61.53
59289;BME280;45056;47.602;9.886;2023-09-07T10:02:08;93322.66;;;23.88;61.60
59289;BME280;45056;47.602;9.886;2023-09-07T10:04:37;93320.88;;;23.90;61.65
59289;BME280;45056;47.602;9.886;2023-09-07T10:07:06;93317.56;;;23.92;61.25
59289;BME280;45056;47.602;9.886;2023-09-07T10:09:36;93315.78;;;23.95;61.31
59289;BME280;45056;47.602;9.886;2023-09-07T10:12:11;93316.97;;;23.99;61.30
59289;BME280;45056;47.602;9.886;2023-09-07T10:14:41;93321.78;;;24.04;61.30
59289;BME280;45056;47.602;9.886;2023-09-07T10:17:21;93317.41;;;24.09;60.88
59289;BME280;45056;47.602;9.886;2023-09-07T10:19:50;93321.19;;;24.12;60.97
59289;BME280;45056;47.602;9.886;2023-09-07T10:22:31;93322.94;;;24.15;60.79
59289;BME280;45056;47.602;9.886;2023-09-07T10:25:01;93320.38;;;24.17;60.60
59289;BME280;45056;47.602;9.886;2023-09-07T10:27:36;93311.53;;;24.18;60.32
59289;BME280;45056;47.602;9.886;2023-09-07T10:30:10;93311.75;;;24.20;60.03
59289;BME280;45056;47.602;9.886;2023-09-07T10:32:40;93309.72;;;24.21;60.30
59289;BME280;45056;47.602;9.886;2023-09-07T10:35:13;93306.44;;;24.23;60.29
59289;BME280;45056;47.602;9.886;2023-09-07T10:37:44;93306.13;;;24.26;60.26
59289;BME280;45056;47.602;9.886;2023-09-07T10:40:20;93308.38;;;24.28;60.08
59289;BME280;45056;47.602;9.886;2023-09-07T10:42:49;93310.84;;;24.31;60.08
59289;BME280;45056;47.602;9.886;2023-09-07T10:45:27;93307.50;;;24.39;59.95
59289;BME280;45056;47.602;9.886;2023-09-07T10:47:56;93309.25;;;24.42;59.70
59289;BME280;45056;47.602;9.886;2023-09-07T10:50:24;93302.09;;;24.46;59.45
59289;BME280;45056;47.602;9.886;2023-09-07T10:52:53;93304.06;;;24.52;59.65
59289;BME280;45056;47.602;9.886;2023-09-07T10:55:23;93298.97;;;24.56;59.51
59289;BME280;45056;47.602;9.886;2023-09-07T10:57:51;93296.84;;;24.62;59.12
59289;BME280;45056;47.602;9.886;2023-09-07T11:00:19;93301.81;;;24.69;59.00
59289;BME280;45056;47.602;9.886;2023-09-07T11:02:47;93297.47;;;24.74;58.69
59289;BME280;45056;47.602;9.886;2023-09-07T11:05:15;93293.41;;;24.75;57.84
59289;BME280;45056;47.602;9.886;2023-09-07T11:07:45;93294.69;;;24.74;57.64
59289;BME280;45056;47.602;9.886;2023-09-07T11:10:13;93291.38;;;24.75;57.71
59289;BME280;45056;47.602;9.886;2023-09-07T11:12:42;93294.59;;;24.80;57.55
59289;BME280;45056;47.602;9.886;2023-09-07T11:15:11;93294.53;;;24.85;57.19
59289;BME280;45056;47.602;9.886;2023-09-07T11:17:40;93298.00;;;24.91;56.79
59289;BME280;45056;47.602;9.886;2023-09-07T11:20:08;93291.50;;;25.02;57.12
59289;BME280;45056;47.602;9.886;2023-09-07T11:22:37;93288.38;;;25.12;57.38
59289;BME280;45056;47.602;9.886;2023-09-07T11:25:07;93286.69;;;25.22;56.81
59289;BME280;45056;47.602;9.886;2023-09-07T11:27:36;93292.28;;;25.35;56.25
59289;BME280;45056;47.602;9.886;2023-09-07T11:30:10;93289.03;;;25.50;55.87
59289;BME280;45056;47.602;9.886;2023-09-07T11:32:39;93285.00;;;25.65;55.20
59289;BME280;45056;47.602;9.886;2023-09-07T11:35:09;93286.00;;;25.81;55.06
59289;BME280;45056;47.602;9.886;2023-09-07T11:37:37;93287.28;;;25.93;54.45
59289;BME280;45056;47.602;9.886;2023-09-07T11:40:07;93282.25;;;26.05;54.34
59289;BME280;45056;47.602;9.886;2023-09-07T11:42:38;93283.56;;;26.18;54.35
59289;BME280;45056;47.602;9.886;2023-09-07T11:45:08;93283.34;;;26.29;53.71
59289;BME280;45056;47.602;9.886;2023-09-07T11:47:37;93286.47;;;26.39;53.22
59289;BME280;45056;47.602;9.886;2023-09-07T11:50:06;93275.94;;;26.45;52.43
59289;BME280;45056;47.602;9.886;2023-09-07T11:52:34;93282.16;;;26.52;52.67
59289;BME280;45056;47.602;9.886;2023-09-07T11:55:02;93280.19;;;26.60;52.79
59289;BME280;45056;47.602;9.886;2023-09-07T11:57:31;93274.19;;;26.69;52.76
59289;BME280;45056;47.602;9.886;2023-09-07T11:59:59;93275.03;;;26.77;51.67
59289;BME280;45056;47.602;9.886;2023-09-07T12:02:28;93274.38;;;26.85;50.41
59289;BME280;45056;47.602;9.886;2023-09-07T12:04:56;93281.56;;;26.93;50.18
59289;BME280;45056;47.602;9.886;2023-09-07T12:07:27;93274.00;;;27.02;49.77
59289;BME280;45056;47.602;9.886;2023-09-07T12:09:55;93270.53;;;27.09;49.45
59289;BME280;45056;47.602;9.886;2023-09-07T12:12:24;93270.81;;;27.19;49.05
59289;BME280;45056;47.602;9.886;2023-09-07T12:14:52;93265.31;;;27.27;49.10
59289;BME280;45056;47.602;9.886;2023-09-07T12:17:22;93270.41;;;27.36;48.33
59289;BME280;45056;47.602;9.886;2023-09-07T12:19:52;93266.94;;;27.43;47.45
59289;BME280;45056;47.602;9.886;2023-09-07T12:22:20;93276.19;;;27.52;47.24
59289;BME280;45056;47.602;9.886;2023-09-07T12:24:49;93272.50;;;27.57;47.14
59289;BME280;45056;47.602;9.886;2023-09-07T12:27:17;93269.34;;;27.60;46.92
59289;BME280;45056;47.602;9.886;2023-09-07T12:29:45;93268.09;;;27.69;47.09
59289;BME280;45056;47.602;9.886;2023-09-07T12:32:13;93267.41;;;27.76;46.85
59289;BME280;45056;47.602;9.886;2023-09-07T12:34:42;93267.06;;;27.80;47.36
59289;BME280;45056;47.602;9.886;2023-09-07T12:37:11;93261.53;;;27.88;47.81
59289;BME280;45056;47.602;9.886;2023-09-07T12:39:39;93260.31;;;27.97;47.04
59289;BME280;45056;47.602;9.886;2023-09-07T12:42:07;93259.78;;;28.06;46.54
59289;BME280;45056;47.602;9.886;2023-09-07T12:44:35;93260.19;;;28.10;46.10
59289;BME280;45056;47.602;9.886;2023-09-07T12:47:03;93259.84;;;28.14;45.19
59289;BME280;45056;47.602;9.886;2023-09-07T12:49:31;93265.09;;;28.17;45.17
59289;BME280;45056;47.602;9.886;2023-09-07T12:52:00;93264.97;;;28.23;45.69
59289;BME280;45056;47.602;9.886;2023-09-07T12:54:31;93261.25;;;28.28;45.25
59289;BME280;45056;47.602;9.886;2023-09-07T12:56:59;93261.09;;;28.34;45.09
59289;BME280;45056;47.602;9.886;2023-09-07T12:59:28;93258.69;;;28.38;44.92
59289;BME280;45056;47.602;9.886;2023-09-07T13:01:56;93256.84;;;28.41;45.19
59289;BME280;45056;47.602;9.886;2023-09-07T13:04:24;93261.72;;;28.48;45.36
59289;BME280;45056;47.602;9.886;2023-09-07T13:06:52;93257.81;;;28.51;46.01
59289;BME280;45056;47.602;9.886;2023-09-07T13:09:20;93259.13;;;28.50;44.94
59289;BME280;45056;47.602;9.886;2023-09-07T13:11:49;93262.66;;;28.50;45.59
59289;BME280;45056;47.602;9.886;2023-09-07T13:14:17;93255.41;;;28.55;45.56
59289;BME280;45056;47.602;9.886;2023-09-07T13:16:45;93261.19;;;28.57;44.79
59289;BME280;45056;47.602;9.886;2023-09-07T13:19:13;93253.91;;;28.54;44.98
59289;BME280;45056;47.602;9.886;2023-09-07T13:21:41;93256.38;;;28.58;45.20
59289;BME280;45056;47.602;9.886;2023-09-07T13:24:09;93251.88;;;28.62;46.09
59289;BME280;45056;47.602;9.886;2023-09-07T13:26:37;93247.44;;;28.67;46.79
59289;BME280;45056;47.602;9.886;2023-09-07T13:29:06;93238.13;;;28.72;46.32
59289;BME280;45056;47.602;9.886;2023-09-07T13:31:34;93247.13;;;28.78;45.96
59289;BME280;45056;47.602;9.886;2023-09-07T13:34:03;93243.22;;;28.82;46.04